Time;durP1;ratioP1;P1;durP2;ratioP2;P2;SDS_P1;SDS_P2;PMS_P1;PMS_P2;Temp;Humidity;BMP_temperature;BMP_pressure;BME280_temperature;BME280_humidity;BME280_pressure;Samples;Min_cycle;Max_cycle;Signal;HPM_P1;HPM_P2
2021/11/12 00:03:47;;;;;;;145.90;62.70;;;;;;;0.62;78.73;101084.61;102673;1317;24346;-61
2021/11/12 00:14:45;;;;;;;134.70;60.60;;;;;;;0.57;78.85;101081.63;102742;1312;24307;-61
2021/11/12 00:17:16;;;;;;;147.50;61.80;;;;;;;0.54;78.97;101083.66;102788;1319;25515;-61
2021/11/12 00:19:49;;;;;;;152.00;64.00;;;;;;;0.49;79.05;101081.45;102994;1313;23147;-61
2021/11/12 00:22:22;;;;;;;150.90;67.50;;;;;;;0.45;79.20;101078.86;102794;1313;22771;-61
2021/11/12 00:24:55;;;;;;;145.50;67.10;;;;;;;0.42;79.13;101079.65;102697;1319;23212;-62
2021/11/12 00:27:27;;;;;;;164.00;69.10;;;;;;;0.38;79.15;101074.46;102747;1312;22661;-62
2021/11/12 00:30:05;;;;;;;190.30;76.60;;;;;;;0.35;79.15;101075.48;102741;1312;26592;-62
2021/11/12 00:32:53;;;;;;;179.30;77.40;;;;;;;0.34;79.49;101069.73;102728;1317;24246;-62
2021/11/12 00:35:30;;;;;;;183.20;76.40;;;;;;;0.33;79.41;101066.13;102747;1312;24364;-62
2021/11/12 00:38:05;;;;;;;177.20;76.10;;;;;;;0.30;79.39;101068.63;102792;1312;24493;-62
2021/11/12 00:40:45;;;;;;;177.90;74.50;;;;;;;0.26;79.57;101073.81;102739;1312;22571;-61
2021/11/12 00:43:31;;;;;;;174.90;72.10;;;;;;;0.25;79.66;101078.67;102766;1318;24315;-61
2021/11/12 00:46:12;;;;;;;186.20;76.40;;;;;;;0.25;79.71;101080.16;102969;1316;23036;-62
2021/11/12 00:48:47;;;;;;;173.50;78.20;;;;;;;0.26;79.72;101076.23;102749;1319;22641;-62
2021/11/12 00:51:22;;;;;;;168.40;72.60;;;;;;;0.26;79.69;101069.55;102760;1312;24275;-62
2021/11/12 00:54:06;;;;;;;167.70;71.70;;;;;;;0.22;79.64;101072.77;102925;1313;22672;-61
2021/11/12 00:56:38;;;;;;;159.30;67.90;;;;;;;0.18;79.55;101071.98;103024;1318;23684;-62
2021/11/12 00:59:11;;;;;;;172.80;69.80;;;;;;;0.13;79.67;101075.10;102855;1317;24235;-62
2021/11/12 01:01:44;;;;;;;155.60;64.40;;;;;;;0.10;79.81;101069.06;103013;1318;22617;-63
2021/11/12 01:04:17;;;;;;;146.80;66.10;;;;;;;0.08;79.83;101071.25;102839;1311;22631;-64
2021/11/12 01:06:50;;;;;;;160.80;70.60;;;;;;;0.07;79.79;101074.08;102962;1318;25475;-63
2021/11/12 01:09:22;;;;;;;146.30;62.80;;;;;;;0.06;79.95;101076.65;102840;1312;22722;-64
2021/11/12 01:11:54;;;;;;;148.30;63.40;;;;;;;0.06;79.86;101070.30;102725;1319;22554;-64
2021/11/12 01:14:28;;;;;;;138.30;59.80;;;;;;;0.04;79.64;101067.87;102822;1317;25451;-64
2021/11/12 01:16:59;;;;;;;139.10;57.50;;;;;;;0.02;79.77;101068.73;102802;1316;22637;-64
2021/11/12 01:19:30;;;;;;;127.50;57.30;;;;;;;0.02;79.78;101070.54;102752;1318;24238;-63
2021/11/12 01:22:01;;;;;;;132.40;56.70;;;;;;;0.00;79.70;101073.67;102742;1319;22592;-64
2021/11/12 01:24:33;;;;;;;141.50;61.40;;;;;;;-0.02;79.76;101075.67;102789;1318;23242;-61
2021/11/12 01:27:04;;;;;;;147.80;65.50;;;;;;;-0.05;79.76;101078.02;102806;1312;23141;-63
2021/11/12 01:29:37;;;;;;;156.90;68.70;;;;;;;-0.11;79.40;101076.67;102822;1317;25253;-64
2021/11/12 01:34:59;;;;;;;153.40;68.00;;;;;;;-0.22;79.29;101070.67;102690;1317;22577;-63
2021/11/12 01:37:32;;;;;;;155.70;64.30;;;;;;;-0.25;79.53;101071.98;102898;1317;26774;-62
2021/11/12 01:40:06;;;;;;;149.50;61.80;;;;;;;-0.28;79.45;101077.63;102803;1319;22640;-63
2021/11/12 01:43:02;;;;;;;145.80;61.50;;;;;;;-0.30;79.42;101074.24;102994;1317;22692;-63
2021/11/12 01:45:46;;;;;;;144.80;60.40;;;;;;;-0.31;79.54;101073.39;102962;1315;22568;-63
2021/11/12 01:48:27;;;;;;;137.70;60.60;;;;;;;-0.32;79.45;101076.90;102762;1313;22564;-63
2021/11/12 01:51:03;;;;;;;141.20;60.70;;;;;;;-0.36;79.35;101072.18;102803;1312;25528;-64
2021/11/12 01:53:37;;;;;;;134.60;59.90;;;;;;;-0.40;79.29;101070.91;102830;1316;22577;-63
2021/11/12 01:56:30;;;;;;;139.00;62.00;;;;;;;-0.40;79.25;101069.02;102924;1312;23955;-66
2021/11/12 02:01:57;;;;;;;140.60;59.70;;;;;;;-0.43;79.27;101064.39;102721;1313;22647;-63
2021/11/12 02:04:32;;;;;;;142.30;60.40;;;;;;;-0.45;79.21;101066.58;102718;1315;25613;-64
2021/11/12 02:07:03;;;;;;;139.80;59.60;;;;;;;-0.47;79.22;101065.55;102647;1317;22596;-64
2021/11/12 02:09:34;;;;;;;149.90;67.10;;;;;;;-0.48;79.26;101064.52;102718;1317;25266;-63
2021/11/12 02:12:16;;;;;;;136.30;59.40;;;;;;;-0.52;79.22;101057.54;102651;1315;22695;-64
2021/11/12 02:14:51;;;;;;;129.30;54.10;;;;;;;-0.52;79.51;101048.91;102703;1318;22702;-63
2021/11/12 02:17:25;;;;;;;115.70;50.70;;;;;;;-0.52;79.43;101046.56;102760;1312;22593;-64
2021/11/12 02:20:00;;;;;;;118.30;53.80;;;;;;;-0.55;79.29;101042.55;102912;1316;24330;-64
2021/11/12 02:22:37;;;;;;;129.40;58.70;;;;;;;-0.57;79.42;101040.02;102704;1318;22599;-63
2021/11/12 02:25:12;;;;;;;153.30;68.00;;;;;;;-0.60;79.38;101041.25;102763;1316;25596;-65
2021/11/12 02:27:49;;;;;;;162.20;67.50;;;;;;;-0.63;79.37;101044.07;102713;1320;25459;-63
2021/11/12 02:30:24;;;;;;;159.50;65.30;;;;;;;-0.66;79.38;101045.92;102765;1315;25249;-62
2021/11/12 02:33:04;;;;;;;153.90;66.70;;;;;;;-0.67;79.35;101046.71;102778;1316;25576;-63
2021/11/12 02:35:39;;;;;;;141.50;59.40;;;;;;;-0.69;79.38;101046.48;102651;1318;22593;-62
2021/11/12 02:38:13;;;;;;;140.20;61.60;;;;;;;-0.71;79.35;101046.62;102611;1312;22646;-63
2021/11/12 02:40:45;;;;;;;131.70;59.10;;;;;;;-0.74;79.35;101042.53;102805;1312;25617;-62
2021/11/12 02:43:17;;;;;;;132.40;57.10;;;;;;;-0.77;79.29;101042.20;102632;1319;25613;-63
2021/11/12 02:45:48;;;;;;;125.40;56.50;;;;;;;-0.77;79.33;101043.98;102667;1316;22652;-62
2021/11/12 02:48:19;;;;;;;129.00;59.50;;;;;;;-0.77;79.43;101049.30;103210;1319;22593;-62
2021/11/12 02:50:50;;;;;;;133.60;55.30;;;;;;;-0.76;79.38;101044.38;102656;1318;23083;-64
2021/11/12 02:53:21;;;;;;;129.10;53.10;;;;;;;-0.76;79.38;101044.08;102844;1318;22782;-63
2021/11/12 02:55:52;;;;;;;127.40;56.40;;;;;;;-0.76;79.37;101049.80;102678;1315;25406;-63
2021/11/12 02:58:24;;;;;;;126.80;56.30;;;;;;;-0.78;79.37;101052.67;102667;1319;22670;-62
2021/11/12 03:00:55;;;;;;;127.00;55.40;;;;;;;-0.78;79.31;101048.68;102675;1315;22577;-63
2021/11/12 03:03:28;;;;;;;120.80;53.00;;;;;;;-0.82;79.33;101049.45;102762;1315;22634;-63
2021/11/12 03:05:59;;;;;;;117.20;49.40;;;;;;;-0.84;79.36;101051.48;102682;1319;25427;-66
2021/11/12 03:08:35;;;;;;;120.90;48.90;;;;;;;-0.85;79.36;101056.09;102691;1316;22558;-62
2021/11/12 03:11:08;;;;;;;119.50;48.70;;;;;;;-0.85;79.38;101056.10;102792;1317;25459;-62
2021/11/12 03:13:39;;;;;;;138.40;57.00;;;;;;;-0.88;79.52;101056.93;102749;1313;25493;-63
2021/11/12 03:16:10;;;;;;;145.70;59.20;;;;;;;-0.93;79.39;101061.99;102754;1319;25515;-63
2021/11/12 03:18:41;;;;;;;141.10;57.30;;;;;;;-1.00;79.28;101061.63;102802;1318;24242;-63
2021/11/12 03:21:16;;;;;;;145.90;58.80;;;;;;;-1.06;79.42;101061.19;102830;1318;25053;-64
2021/11/12 03:23:51;;;;;;;147.80;61.90;;;;;;;-1.09;79.41;101060.55;102735;1317;22652;-64
2021/11/12 03:26:33;;;;;;;143.50;58.10;;;;;;;-1.11;79.52;101061.15;102707;1318;22621;-64
2021/11/12 04:03:00;;;;;;;117.80;51.90;;;;;;;-1.30;80.41;101060.98;101799;1324;22677;-61
2021/11/12 04:20:05;;;;;;;107.80;44.50;;;;;;;-1.27;80.79;101053.90;102372;1320;25093;-62
2021/11/12 05:44:28;;;;;;;121.90;53.90;;;;;;;-1.43;82.18;101093.66;102249;1328;25686;-63
2021/11/12 05:47:13;;;;;;;136.90;61.10;;;;;;;-1.42;82.31;101098.46;102264;1327;23201;-66
2021/11/12 05:49:52;;;;;;;160.00;70.10;;;;;;;-1.40;82.34;101097.46;102377;1321;22643;-61
2021/11/12 05:55:04;;;;;;;147.20;61.90;;;;;;;-1.38;82.28;101098.42;102613;1316;23318;-64
2021/11/12 05:55:15;;;;;;;137.70;57.90;;;;;;;-1.38;82.38;101102.33;102538;1316;24273;-64
2021/11/12 05:57:46;;;;;;;130.80;53.50;;;;;;;-1.37;82.34;101110.64;102773;1316;22977;-64
2021/11/12 06:00:20;;;;;;;126.40;55.10;;;;;;;-1.34;82.40;101119.81;102840;1318;22652;-63
2021/11/12 06:02:52;;;;;;;121.60;52.10;;;;;;;-1.33;82.35;101126.64;102847;1318;22725;-64
2021/11/12 06:05:23;;;;;;;113.90;48.20;;;;;;;-1.31;82.63;101130.10;102866;1313;22809;-64
2021/11/12 06:07:54;;;;;;;104.70;45.80;;;;;;;-1.27;82.72;101124.67;102740;1313;25727;-63
2021/11/12 06:10:25;;;;;;;108.80;46.20;;;;;;;-1.24;82.54;101117.17;102717;1317;25567;-63
2021/11/12 06:12:57;;;;;;;112.70;48.40;;;;;;;-1.20;82.60;101102.40;102760;1313;22606;-63
2021/11/12 06:15:29;;;;;;;106.20;46.60;;;;;;;-1.18;82.72;101104.86;102728;1320;25643;-64
2021/11/12 06:18:02;;;;;;;101.70;45.90;;;;;;;-1.17;82.74;101110.82;102802;1318;22725;-64
2021/11/12 06:20:33;;;;;;;105.60;45.00;;;;;;;-1.14;82.79;101110.98;102783;1318;24059;-63
2021/11/12 06:23:06;;;;;;;97.10;46.90;;;;;;;-1.12;82.84;101108.83;102862;1313;22890;-65
2021/11/12 06:25:37;;;;;;;104.20;44.30;;;;;;;-1.09;82.85;101107.68;102809;1318;22669;-63
2021/11/12 06:28:09;;;;;;;112.70;47.90;;;;;;;-1.06;82.96;101104.17;102802;1317;25798;-65
2021/11/12 06:30:41;;;;;;;109.50;49.50;;;;;;;-1.03;82.91;101100.13;102835;1320;22883;-64
2021/11/12 06:33:12;;;;;;;109.80;46.30;;;;;;;-1.00;83.12;101105.95;102827;1317;23132;-64
2021/11/12 06:35:43;;;;;;;101.10;44.50;;;;;;;-0.96;83.13;101103.00;102772;1313;22818;-63
2021/11/12 06:38:17;;;;;;;105.60;48.30;;;;;;;-0.92;83.32;101103.27;102743;1315;22673;-63
2021/11/12 06:40:48;;;;;;;94.00;43.50;;;;;;;-0.86;83.33;101098.77;102861;1317;22635;-65
2021/11/12 06:43:25;;;;;;;91.70;40.30;;;;;;;-0.82;83.36;101102.71;102761;1316;22782;-64
2021/11/12 06:51:34;;;;;;;121.50;59.50;;;;;;;-0.66;83.80;101104.30;102734;1320;23092;-64
2021/11/12 06:54:06;;;;;;;131.50;63.30;;;;;;;-0.62;83.89;101105.58;102737;1313;25670;-63
2021/11/12 06:56:40;;;;;;;104.90;52.20;;;;;;;-0.58;83.98;101108.98;102906;1318;22699;-64
2021/11/12 06:59:12;;;;;;;107.00;52.10;;;;;;;-0.54;83.96;101117.15;102751;1318;24736;-64
2021/11/12 07:01:44;;;;;;;105.40;50.40;;;;;;;-0.48;84.21;101116.80;102874;1315;22660;-63
2021/11/12 07:04:15;;;;;;;98.70;43.50;;;;;;;-0.43;84.34;101112.35;102798;1319;22666;-64
2021/11/12 07:06:47;;;;;;;106.90;46.80;;;;;;;-0.38;84.22;101106.75;102758;1318;25688;-64
2021/11/12 07:09:19;;;;;;;94.60;42.50;;;;;;;-0.31;84.42;101103.88;102910;1319;24794;-64
2021/11/12 07:11:50;;;;;;;98.90;44.70;;;;;;;-0.26;84.34;101103.98;102798;1313;22591;-64
2021/11/12 07:14:21;;;;;;;106.10;47.00;;;;;;;-0.19;84.37;101106.20;102817;1312;25424;-64
2021/11/12 07:16:53;;;;;;;105.80;46.50;;;;;;;-0.13;84.51;101106.23;102746;1317;22611;-65
2021/11/12 07:19:24;;;;;;;97.50;45.70;;;;;;;-0.08;84.50;101104.37;102831;1318;22699;-63
2021/11/12 07:21:57;;;;;;;135.90;61.80;;;;;;;-0.02;84.76;101098.20;102806;1317;22590;-62
2021/11/12 07:24:30;;;;;;;161.60;82.60;;;;;;;0.05;84.80;101102.46;102807;1312;22651;-61
2021/11/12 07:27:04;;;;;;;135.70;65.90;;;;;;;0.13;84.94;101105.78;102850;1317;22597;-62
2021/11/12 07:29:39;;;;;;;101.50;47.20;;;;;;;0.21;84.97;101101.73;103071;1319;22593;-62
2021/11/12 07:32:12;;;;;;;104.50;48.30;;;;;;;0.28;84.92;101099.94;103044;1312;22990;-61
2021/11/12 07:34:45;;;;;;;97.20;48.00;;;;;;;0.34;85.18;101096.19;103267;1313;22568;-63
2021/11/12 07:37:17;;;;;;;98.10;46.10;;;;;;;0.42;85.36;101095.11;102818;1313;22598;-63
2021/11/12 07:39:51;;;;;;;102.10;46.70;;;;;;;0.50;85.53;101096.84;102967;1318;22580;-60
2021/11/12 07:42:31;;;;;;;100.60;48.50;;;;;;;0.60;85.70;101099.30;102767;1312;22589;-61
2021/11/12 07:45:11;;;;;;;95.40;44.80;;;;;;;0.70;86.06;101106.14;102851;1313;25377;-61
2021/11/12 07:47:42;;;;;;;90.60;42.50;;;;;;;0.84;86.59;101108.89;103566;1300;25323;-62
2021/11/12 07:50:14;;;;;;;97.70;47.00;;;;;;;0.96;86.47;101107.80;103223;1310;22627;-62
2021/11/12 07:52:45;;;;;;;95.10;42.50;;;;;;;1.06;86.74;101105.75;103311;1315;22627;-62
2021/11/12 07:55:16;;;;;;;100.50;43.60;;;;;;;1.17;86.72;101105.35;103037;1311;25510;-62
2021/11/12 07:57:47;;;;;;;96.00;42.50;;;;;;;1.27;86.93;101107.45;103215;1310;22587;-62
2021/11/12 08:00:18;;;;;;;83.20;38.00;;;;;;;1.36;86.71;101106.42;103103;1313;24244;-62
2021/11/12 08:02:50;;;;;;;104.40;44.00;;;;;;;1.44;86.68;101102.55;103160;1313;26993;-63
2021/11/12 08:05:24;;;;;;;94.30;41.40;;;;;;;1.51;86.74;101098.22;103224;1314;22710;-62
2021/11/12 08:08:03;;;;;;;90.50;42.80;;;;;;;1.57;86.53;101098.67;102830;1313;26646;-62
2021/11/12 08:10:43;;;;;;;88.60;40.50;;;;;;;1.63;86.47;101093.31;103134;1316;22649;-62
2021/11/12 08:13:21;;;;;;;91.90;39.20;;;;;;;1.71;86.89;101091.95;103248;1313;22575;-62
2021/11/12 08:16:03;;;;;;;92.20;41.50;;;;;;;1.80;86.86;101093.73;103480;1312;27490;-62
2021/11/12 08:21:27;;;;;;;95.60;41.00;;;;;;;1.96;87.18;101094.22;103129;1314;22582;-63
2021/11/12 08:24:07;;;;;;;103.00;46.00;;;;;;;2.03;87.00;101087.73;103152;1314;23023;-63
2021/11/12 08:26:56;;;;;;;104.70;44.30;;;;;;;2.12;86.97;101089.81;102913;1317;24217;-63
2021/11/12 08:32:27;;;;;;;100.30;44.00;;;;;;;2.29;87.08;101094.21;103063;1317;22565;-63
2021/11/12 08:35:06;;;;;;;93.10;41.30;;;;;;;2.36;87.12;101096.13;103056;1310;25392;-63
2021/11/12 08:37:48;;;;;;;90.00;41.20;;;;;;;2.43;87.07;101094.05;103224;1316;23516;-63
2021/11/12 08:40:30;;;;;;;112.60;51.70;;;;;;;2.50;87.09;101088.57;103223;1312;22586;-63
2021/11/12 08:43:05;;;;;;;104.60;50.30;;;;;;;2.58;87.18;101092.21;103111;1316;22601;-63
2021/11/12 08:45:38;;;;;;;100.00;45.80;;;;;;;2.65;87.32;101093.67;103222;1310;25531;-63
2021/11/12 08:48:13;;;;;;;103.40;46.30;;;;;;;2.73;87.41;101094.48;102912;1318;25559;-62
2021/11/12 08:50:44;;;;;;;106.60;49.60;;;;;;;2.79;87.24;101090.49;103144;1313;24218;-63
2021/11/12 08:53:18;;;;;;;111.10;51.00;;;;;;;2.87;87.38;101090.73;103192;1314;22780;-63
2021/11/12 08:55:49;;;;;;;99.60;46.30;;;;;;;2.97;87.77;101091.45;103183;1313;25319;-63
2021/11/12 08:58:21;;;;;;;112.30;51.60;;;;;;;3.07;87.92;101089.31;103224;1316;22564;-63
2021/11/12 09:00:53;;;;;;;110.00;49.30;;;;;;;3.16;87.93;101084.19;102877;1318;22587;-63
2021/11/12 09:03:24;;;;;;;107.00;51.10;;;;;;;3.24;87.55;101074.65;103131;1314;22593;-63
2021/11/12 09:05:55;;;;;;;102.50;46.10;;;;;;;3.32;87.75;101069.84;103054;1313;22574;-63
2021/11/12 09:08:27;;;;;;;90.50;40.60;;;;;;;3.41;87.65;101067.92;102586;1311;25602;-63
2021/11/12 09:11:00;;;;;;;94.10;39.90;;;;;;;3.49;87.83;101068.00;103222;1312;25402;-63
2021/11/12 09:13:34;;;;;;;87.80;38.30;;;;;;;3.57;87.90;101065.15;102787;1312;22722;-63
2021/11/12 09:16:09;;;;;;;83.00;35.40;;;;;;;3.66;87.97;101061.10;103020;1313;22572;-63
2021/11/12 09:18:42;;;;;;;90.60;39.40;;;;;;;3.75;87.87;101056.42;102798;1314;22853;-64
2021/11/12 09:21:13;;;;;;;92.30;42.60;;;;;;;3.82;87.86;101050.48;103206;1316;25360;-63
2021/11/12 09:23:45;;;;;;;90.50;41.30;;;;;;;3.90;87.50;101050.71;103680;1316;22577;-63
2021/11/12 09:26:16;;;;;;;95.20;40.20;;;;;;;3.96;87.68;101050.40;103164;1313;24355;-63
2021/11/12 09:28:48;;;;;;;85.70;40.80;;;;;;;4.03;87.60;101052.58;103152;1313;24334;-63
2021/11/12 09:31:20;;;;;;;97.30;45.50;;;;;;;4.09;87.47;101052.83;103199;1316;24284;-62
2021/11/12 09:33:52;;;;;;;88.60;40.20;;;;;;;4.15;87.31;101046.66;103179;1314;26946;-62
2021/11/12 09:36:24;;;;;;;91.00;40.50;;;;;;;4.21;87.51;101047.45;103201;1313;22574;-63
2021/11/12 09:38:55;;;;;;;92.90;39.20;;;;;;;4.26;87.41;101040.27;103057;1310;25323;-63
2021/11/12 09:41:27;;;;;;;107.20;45.20;;;;;;;4.33;87.50;101041.45;103095;1310;24237;-62
2021/11/12 09:44:02;;;;;;;99.90;46.20;;;;;;;4.40;87.50;101041.80;103185;1309;22799;-62
2021/11/12 09:46:34;;;;;;;92.20;42.20;;;;;;;4.47;87.31;101041.77;103245;1310;26591;-64
2021/11/12 09:49:06;;;;;;;96.60;42.70;;;;;;;4.53;87.23;101043.89;103365;1312;25323;-62
2021/11/12 09:51:37;;;;;;;95.80;43.00;;;;;;;4.59;87.15;101043.97;103122;1314;26597;-63
2021/11/12 09:54:08;;;;;;;99.70;47.40;;;;;;;4.66;87.31;101045.27;103136;1309;22629;-65
2021/11/12 09:56:39;;;;;;;97.60;43.40;;;;;;;4.74;87.22;101044.03;103071;1312;22584;-67
2021/11/12 09:59:10;;;;;;;102.60;45.50;;;;;;;4.81;87.26;101040.92;103555;1312;25328;-63
2021/11/12 10:01:42;;;;;;;92.20;43.10;;;;;;;4.88;87.48;101032.26;103119;1313;22573;-63
2021/11/12 10:04:13;;;;;;;94.50;42.40;;;;;;;4.99;87.66;101028.52;103153;1313;22642;-64
2021/11/12 10:06:45;;;;;;;93.00;43.00;;;;;;;5.09;87.40;101028.10;103160;1314;22622;-63
2021/11/12 10:09:18;;;;;;;100.10;41.50;;;;;;;5.17;87.15;101028.12;103065;1313;22563;-64
2021/11/12 10:11:51;;;;;;;87.30;39.80;;;;;;;5.26;87.23;101026.04;103139;1314;26467;-66
2021/11/12 10:14:38;;;;;;;95.10;42.90;;;;;;;5.35;87.12;101019.23;103055;1313;25419;-64
2021/11/12 10:17:11;;;;;;;92.00;41.80;;;;;;;5.42;86.93;101014.59;103196;1316;22638;-63
2021/11/12 10:19:47;;;;;;;95.40;41.90;;;;;;;5.50;86.97;101012.91;103209;1314;22586;-64
2021/11/12 10:22:22;;;;;;;86.20;39.60;;;;;;;5.58;86.94;101013.48;103181;1313;23132;-64
2021/11/12 10:24:54;;;;;;;89.00;40.90;;;;;;;5.66;86.89;101012.19;103192;1312;22573;-63
2021/11/12 10:27:29;;;;;;;86.60;37.50;;;;;;;5.73;86.73;101011.81;103103;1312;22600;-64
2021/11/12 10:30:08;;;;;;;76.50;36.80;;;;;;;5.82;86.70;101003.88;103078;1313;22564;-63
2021/11/12 10:32:40;;;;;;;77.20;35.80;;;;;;;5.90;86.54;100999.30;103262;1309;23394;-63
2021/11/12 10:35:22;;;;;;;82.50;36.40;;;;;;;5.98;86.51;100991.83;103345;1313;25240;-63
2021/11/12 10:37:56;;;;;;;92.20;42.70;;;;;;;6.06;86.46;100988.40;103107;1313;22558;-64
2021/11/12 10:40:30;;;;;;;83.10;36.60;;;;;;;6.12;86.53;100985.41;103042;1309;22697;-64
2021/11/12 10:43:01;;;;;;;85.80;40.60;;;;;;;6.19;86.32;100985.73;103293;1312;22594;-63
2021/11/12 10:45:34;;;;;;;83.00;39.30;;;;;;;6.27;86.12;100982.86;103055;1313;24282;-66
2021/11/12 10:48:08;;;;;;;77.90;35.80;;;;;;;6.31;85.68;100972.45;103307;1316;24410;-69
2021/11/12 10:50:42;;;;;;;81.90;37.90;;;;;;;6.36;85.60;100969.00;105327;1316;26617;-65
2021/11/12 10:53:15;;;;;;;86.40;37.60;;;;;;;6.40;85.52;100964.30;104303;1315;25246;-63
2021/11/12 10:55:58;;;;;;;73.90;34.60;;;;;;;6.45;85.33;100963.16;103154;1317;23886;-64
2021/11/12 10:58:29;;;;;;;75.80;35.70;;;;;;;6.50;85.32;100961.30;103060;1316;22601;-64
2021/11/12 11:01:01;;;;;;;66.70;34.10;;;;;;;6.54;85.11;100954.54;103016;1316;22588;-63
2021/11/12 11:03:31;;;;;;;78.20;34.20;;;;;;;6.58;84.74;100951.09;103289;1314;22587;-69
2021/11/12 11:06:05;;;;;;;71.10;34.20;;;;;;;6.62;84.62;100951.72;103517;1311;22664;-62
2021/11/12 11:08:38;;;;;;;72.60;32.40;;;;;;;6.65;84.58;100948.71;102946;1312;22632;-64
2021/11/12 11:11:11;;;;;;;73.00;32.80;;;;;;;6.68;84.23;100945.86;102927;1312;25552;-63
2021/11/12 11:13:46;;;;;;;71.50;32.20;;;;;;;6.71;84.32;100942.46;102964;1309;22582;-71
2021/11/12 11:16:18;;;;;;;73.30;32.30;;;;;;;6.75;84.28;100940.77;103568;1312;22900;-64
2021/11/12 11:18:52;;;;;;;65.90;31.80;;;;;;;6.79;84.26;100942.23;103120;1315;25358;-63
2021/11/12 11:21:27;;;;;;;70.00;33.30;;;;;;;6.83;83.99;100933.24;103000;1312;22617;-63
2021/11/12 11:24:02;;;;;;;63.50;31.00;;;;;;;6.89;84.09;100929.14;102865;1312;22684;-62
2021/11/12 11:26:44;;;;;;;62.50;30.70;;;;;;;6.94;83.91;100922.72;103473;1311;24253;-65
2021/11/12 11:29:19;;;;;;;65.90;31.80;;;;;;;6.99;83.78;100920.21;102964;1316;27378;-65
2021/11/12 11:31:52;;;;;;;64.60;33.00;;;;;;;7.03;83.82;100918.35;103129;1312;25466;-64
2021/11/12 11:34:24;;;;;;;66.50;31.30;;;;;;;7.08;83.53;100916.08;103159;1313;22940;-64
2021/11/12 11:37:00;;;;;;;66.00;30.70;;;;;;;7.13;83.63;100907.05;103187;1317;24214;-64
2021/11/12 11:39:31;;;;;;;59.70;29.80;;;;;;;7.18;83.31;100898.89;103113;1317;24705;-64
2021/11/12 11:42:04;;;;;;;64.30;31.60;;;;;;;7.23;83.22;100901.61;102989;1312;22653;-64
2021/11/12 11:44:36;;;;;;;67.10;31.40;;;;;;;7.27;82.95;100900.23;103044;1314;24320;-64
2021/11/12 11:47:07;;;;;;;68.40;33.30;;;;;;;7.28;82.77;100901.30;103067;1315;22576;-64
2021/11/12 11:49:38;;;;;;;67.90;32.30;;;;;;;7.32;82.87;100896.04;103082;1312;25349;-64
2021/11/12 11:52:12;;;;;;;73.30;33.50;;;;;;;7.35;82.88;100893.65;103016;1314;22622;-64
2021/11/12 11:54:49;;;;;;;65.40;32.00;;;;;;;7.38;82.64;100897.52;103074;1319;26604;-64
2021/11/12 11:57:23;;;;;;;63.80;31.70;;;;;;;7.40;82.52;100897.23;103100;1313;25547;-64
2021/11/12 12:00:20;;;;;;;71.10;36.30;;;;;;;7.40;82.41;100890.49;103137;1314;22672;-64
2021/11/12 12:03:25;;;;;;;74.00;34.50;;;;;;;7.42;82.36;100886.39;103108;1316;22620;-64
2021/11/12 12:06:07;;;;;;;71.60;33.70;;;;;;;7.43;82.41;100881.41;103077;1312;22651;-64
2021/11/12 12:08:52;;;;;;;66.90;31.80;;;;;;;7.45;82.24;100876.31;103109;1312;22576;-64
2021/11/12 12:11:24;;;;;;;75.20;35.70;;;;;;;7.44;82.23;100870.60;103075;1312;22554;-64
2021/11/12 12:14:19;;;;;;;71.90;33.50;;;;;;;7.45;82.33;100868.50;103013;1318;25572;-64
2021/11/12 12:17:06;;;;;;;66.30;29.80;;;;;;;7.47;82.10;100870.05;103122;1312;204685;-64
2021/11/12 12:19:44;;;;;;;61.20;30.70;;;;;;;7.48;82.04;100873.98;103080;1315;24991;-64
2021/11/12 12:35:05;;;;;;;61.50;29.40;;;;;;;7.41;81.38;100854.98;103003;1318;22549;-64
2021/11/12 12:38:09;;;;;;;64.80;30.30;;;;;;;7.39;81.22;100855.92;103027;1315;22669;-64
2021/11/12 13:21:34;;;;;;;60.50;29.60;;;;;;;7.11;80.12;100820.55;102390;1321;22678;-64
2021/11/12 13:24:17;;;;;;;66.20;32.60;;;;;;;7.08;80.22;100815.59;102507;1320;22590;-64
2021/11/12 13:27:00;;;;;;;68.20;33.60;;;;;;;7.07;80.28;100817.43;102527;1317;22658;-64
2021/11/12 13:29:35;;;;;;;64.70;31.70;;;;;;;7.06;80.32;100811.81;102603;1317;24401;-64
2021/11/12 13:32:08;;;;;;;78.30;35.70;;;;;;;7.05;80.17;100811.37;102581;1316;22640;-64
2021/11/12 13:34:48;;;;;;;63.50;29.00;;;;;;;7.03;80.04;100815.48;102548;1316;22583;-64
2021/11/12 13:37:22;;;;;;;63.60;31.40;;;;;;;6.99;79.79;100812.83;102737;1316;22642;-64
2021/11/12 13:40:12;;;;;;;66.40;30.80;;;;;;;6.94;79.83;100813.45;102551;1321;22635;-64
2021/11/12 13:42:49;;;;;;;64.80;31.40;;;;;;;6.89;79.76;100808.11;102668;1321;25009;-64
2021/11/12 13:45:23;;;;;;;76.60;32.90;;;;;;;6.87;79.88;100803.73;102569;1316;24046;-64
2021/11/12 13:48:09;;;;;;;66.90;31.10;;;;;;;6.87;80.02;100806.10;102589;1318;24297;-64
2021/11/12 13:50:43;;;;;;;65.20;30.30;;;;;;;6.86;79.81;100806.48;102545;1318;22650;-64
2021/11/12 13:53:14;;;;;;;63.40;30.20;;;;;;;6.82;79.58;100806.89;103335;1299;22588;-61
2021/11/12 13:55:46;;;;;;;67.20;31.40;;;;;;;6.80;79.75;100803.70;102736;1312;25343;-60
2021/11/12 13:58:23;;;;;;;70.80;32.40;;;;;;;6.79;79.69;100803.48;102873;1312;22727;-61
2021/11/12 14:00:55;;;;;;;72.70;33.90;;;;;;;6.79;79.77;100804.36;102907;1320;25322;-61
2021/11/12 14:03:36;;;;;;;69.70;33.50;;;;;;;6.79;79.88;100804.03;102809;1316;22604;-62
2021/11/12 14:06:12;;;;;;;79.10;36.40;;;;;;;6.80;80.00;100801.80;102932;1312;22700;-62
2021/11/12 14:08:45;;;;;;;75.10;34.90;;;;;;;6.80;79.80;100795.60;102879;1312;25531;-62
2021/11/12 14:11:23;;;;;;;80.00;37.40;;;;;;;6.79;79.75;100790.09;103024;1319;25242;-61
2021/11/12 14:13:56;;;;;;;83.10;37.30;;;;;;;6.77;79.68;100789.42;102821;1311;24246;-62
2021/11/12 14:16:34;;;;;;;81.50;38.50;;;;;;;6.76;79.63;100795.65;102918;1318;22592;-61
2021/11/12 14:19:33;;;;;;;95.40;41.00;;;;;;;6.76;79.70;100795.57;102953;1319;22593;-61
2021/11/12 14:22:07;;;;;;;107.50;47.00;;;;;;;6.74;79.71;100793.55;102872;1312;24471;-61
2021/11/12 14:24:51;;;;;;;91.90;45.00;;;;;;;6.73;79.78;100787.73;102863;1318;24678;-61
2021/11/12 14:27:29;;;;;;;101.20;44.20;;;;;;;6.71;79.66;100786.12;102976;1316;22572;-61
2021/11/12 14:36:01;;;;;;;100.50;44.40;;;;;;;6.64;79.44;100774.84;102580;1321;26368;-62
2021/11/12 14:38:34;;;;;;;92.60;40.50;;;;;;;6.61;79.31;100769.52;102622;1317;22570;-62
2021/11/12 14:44:38;;;;;;;77.90;37.20;;;;;;;6.52;79.16;100759.86;102175;1324;22764;-62
2021/11/12 14:47:23;;;;;;;85.60;38.70;;;;;;;6.47;79.17;100759.99;102211;1321;22733;-61
2021/11/12 14:50:01;;;;;;;84.20;38.30;;;;;;;6.44;79.02;100766.04;102111;1323;22645;-61
2021/11/12 14:52:35;;;;;;;91.70;42.90;;;;;;;6.40;79.01;100766.62;102232;1325;22579;-62
2021/11/12 14:55:10;;;;;;;96.50;44.70;;;;;;;6.37;78.84;100760.44;102304;1324;22612;-62
2021/11/12 14:57:43;;;;;;;95.50;43.30;;;;;;;6.34;79.02;100753.63;102167;1328;24487;-61
2021/11/12 15:00:18;;;;;;;96.10;43.60;;;;;;;6.32;79.04;100749.40;103161;1325;25325;-61
2021/11/12 15:02:50;;;;;;;93.10;43.70;;;;;;;6.31;79.07;100744.94;102331;1325;24513;-62
2021/11/12 15:05:25;;;;;;;105.20;47.70;;;;;;;6.29;79.11;100746.21;102312;1325;22796;-62
2021/11/12 15:08:04;;;;;;;102.20;46.50;;;;;;;6.30;79.09;100747.01;102208;1324;22576;-62
2021/11/12 15:10:35;;;;;;;108.00;49.60;;;;;;;6.29;79.18;100744.20;102513;1316;24065;-61
2021/11/12 15:13:06;;;;;;;111.00;50.60;;;;;;;6.29;79.23;100742.77;102566;1316;23994;-61
2021/11/12 15:15:38;;;;;;;98.40;45.60;;;;;;;6.27;79.26;100740.52;102517;1316;22582;-63
2021/11/12 15:18:12;;;;;;;109.00;50.00;;;;;;;6.27;79.21;100743.77;102616;1316;24281;-61